Date,TemperatureHighF,TemperatureAvgF,TemperatureLowF,DewpointHighF,DewpointAvgF,DewpointLowF,HumidityHigh,HumidityAvg,HumidityLow,PressureMaxIn,PressureMinIn,WindSpeedMaxMPH,WindSpeedAvgMPH,GustSpeedMaxMPH,PrecipitationSumIn
2013-3-1,35.1,32.3,29.8,17.1,8.5,-7.9,54,40,21,30.19,30.07,4,2,16,0.04
2013-3-2,29.7,27.4,25.9,-6.9,-13.5,-24.2,22,18,12,30.21,30.18,3,2,10,0.01
2013-3-3,28.8,24.3,21.2,0.0,-12.9,-29.3,25,14,10,30.21,29.23,0,0,2,0.00
2013-3-4,41.7,30.1,17.4,1.5,-12.3,-23.2,38,21,10,30.25,29.12,5,2,12,0.01
2013-3-5,36.9,34.0,27.9,17.5,8.6,-1.6,56,38,23,30.11,28.82,4,2,11,0.11
2013-3-6,35.8,30.4,26.8,15.4,9.5,0.9,57,43,25,30.37,29.88,4,1,14,0.01
2013-3-7,44.2,33.9,29.1,10.0,-5.0,-23.2,44,25,10,30.50,30.36,3,1,11,0.28
2013-3-8,49.8,34.6,21.6,4.4,-11.4,-23.0,40,20,10,30.58,30.48,3,1,11,0.01
2013-3-9,52.7,43.4,30.9,-1.8,-14.6,-19.6,24,14,10,30.47,30.07,7,3,18,0.00
2013-3-10,69.3,58.3,51.3,-19.1,-19.1,-19.1,10,10,10,30.06,29.85,10,6,24,0.00
2013-3-11,59.9,52.3,44.1,36.3,20.3,-19.1,57,39,10,29.85,29.72,10,4,21,0.14
2013-3-12,47.1,38.5,31.8,12.2,-13.8,-22.1,41,17,10,30.13,30.06,8,4,18,0.01
2013-3-13,34.2,30.9,26.1,6.8,-20.1,-24.7,35,13,10,30.42,30.12,7,4,22,0.00
2013-3-14,47.5,36.3,21.2,4.2,-20.9,-29.3,30,13,10,30.45,30.27,4,2,10,0.00
2013-3-15,51.8,40.4,29.3,12.5,-0.7,-14.2,45,23,10,30.27,29.89,4,2,11,0.00
2013-3-16,46.9,40.5,34.0,23.4,14.0,2.5,50,36,25,30.17,29.73,5,2,18,0.04
2013-3-17,39.9,34.1,30.2,4.0,-14.2,-24.6,30,17,10,30.29,30.11,7,4,17,0.00
2013-3-18,42.8,36.7,32.2,26.4,16.4,-0.8,55,45,25,30.10,29.70,6,2,15,0.30
2013-3-19,43.9,33.1,25.5,9.0,-24.4,-28.9,33,12,10,30.22,29.96,11,6,26,0.00
2013-3-20,34.2,28.7,23.5,-28.4,-28.5,-28.5,10,10,10,30.22,30.13,8,4,23,0.00
2013-3-21,40.1,29.5,15.8,-8.0,-33.0,-34.7,28,11,10,30.16,30.09,5,2,14,0.00
2013-3-22,47.5,34.7,26.1,-17.0,-29.4,-34.7,15,10,10,30.18,30.11,4,1,11,0.00
2013-3-23,50.5,41.5,31.1,-26.3,-26.3,-26.3,10,10,10,30.20,30.04,3,2,8,0.00
2013-3-24,50.2,42.7,28.4,13.2,-12.7,-26.3,53,23,10,30.05,29.60,8,4,22,0.07
2013-3-25,39.2,31.7,27.7,17.8,10.0,-6.2,55,44,18,30.11,29.62,6,4,18,0.11
2013-3-26,44.8,35.8,30.7,11.2,-5.9,-22.1,43,23,10,30.36,30.11,6,4,17,0.00
2013-3-27,46.8,36.2,25.7,0.4,-14.6,-23.6,32,16,10,30.44,30.36,6,2,13,0.00
2013-3-28,52.3,38.9,27.9,-8.1,-18.8,-22.6,22,13,10,30.48,30.41,5,2,13,0.00
2013-3-29,61.9,46.7,32.2,0.0,-2.7,-16.6,26,6,12,30.43,30.33,4,1,10,0.00
2013-3-30,61.0,46.3,28.9,8.6,-7.0,-14.2,38,18,10,30.35,30.05,5,2,14,0.00
2013-3-31,65.3,51.4,44.2,19.2,0.3,-15.4,35,18,10,30.05,29.88,7,2,18,0.06